Time;durP1;ratioP1;P1;durP2;ratioP2;P2;SDS_P1;SDS_P2;PMS_P1;PMS_P2;Temp;Humidity;BMP_temperature;BMP_pressure;BME280_temperature;BME280_humidity;BME280_pressure;Samples;Min_cycle;Max_cycle;Signal;HPM_P1;HPM_P2
2021/06/18 00:02:04;;;;;;;0.00;0.00;;;;;;;;;;5083862;28;20281;-68
2021/06/18 00:04:29;;;;;;;0.00;0.00;;;;;;;;;;5062610;28;20119;-68
2021/06/18 00:06:58;;;;;;;0.00;0.00;;;;;;;;;;5055010;28;20103;-67
2021/06/18 00:09:23;;;;;;;0.00;0.00;;;;;;;;;;5077171;28;20607;-68
2021/06/18 00:11:49;;;;;;;0.00;0.00;;;;;;;;;;5064721;28;20053;-68
2021/06/18 00:14:14;;;;;;;0.00;0.00;;;;;;;;;;5079118;28;20106;-69
2021/06/18 00:16:39;;;;;;;0.00;0.00;;;;;;;;;;5077249;28;20519;-69
2021/06/18 00:19:05;;;;;;;0.00;0.00;;;;;;;;;;5090561;28;20272;-68
2021/06/18 00:21:30;;;;;;;0.00;0.00;;;;;;;;;;5076248;28;20484;-69
2021/06/18 00:23:55;;;;;;;0.00;0.00;;;;;;;;;;5080661;28;20281;-68
2021/06/18 00:26:21;;;;;;;0.00;0.00;;;;;;;;;;5060040;28;20288;-68
2021/06/18 00:28:46;;;;;;;0.00;0.00;;;;;;;;;;5077452;28;20016;-68
2021/06/18 00:31:11;;;;;;;0.00;0.00;;;;;;;;;;5082295;28;20016;-69
2021/06/18 00:33:36;;;;;;;0.00;0.00;;;;;;;;;;5080415;28;20016;-69
2021/06/18 00:36:01;;;;;;;0.00;0.00;;;;;;;;;;5079530;28;20783;-69
2021/06/18 00:38:27;;;;;;;0.00;0.00;;;;;;;;;;5082283;28;20046;-69
2021/06/18 00:40:52;;;;;;;0.00;0.00;;;;;;;;;;5083683;28;20030;-69
2021/06/18 00:43:17;;;;;;;0.00;0.00;;;;;;;;;;5085845;28;20039;-69
2021/06/18 00:45:43;;;;;;;0.00;0.00;;;;;;;;;;5098772;28;20424;-69
2021/06/18 00:48:08;;;;;;;0.00;0.00;;;;;;;;;;5101934;28;20011;-69
2021/06/18 00:50:33;;;;;;;0.00;0.00;;;;;;;;;;5104027;28;20106;-69
2021/06/18 00:52:58;;;;;;;0.00;0.00;;;;;;;;;;5085206;28;20127;-69
2021/06/18 00:55:24;;;;;;;0.00;0.00;;;;;;;;;;5093033;28;20016;-70
2021/06/18 00:57:53;;;;;;;0.00;0.00;;;;;;;;;;5064698;28;20034;-70
2021/06/18 01:00:20;;;;;;;0.00;0.00;;;;;;;;;;5076754;28;20024;-69
2021/06/18 01:02:45;;;;;;;0.00;0.00;;;;;;;;;;5076987;28;20099;-68
2021/06/18 01:05:12;;;;;;;0.00;0.00;;;;;;;;;;5076513;28;20135;-69
2021/06/18 01:07:47;;;;;;;0.00;0.00;;;;;;;;;;5057072;28;20107;-69
2021/06/18 01:10:14;;;;;;;0.00;0.00;;;;;;;;;;5093967;28;20019;-70
2021/06/18 01:12:59;;;;;;;0.00;0.00;;;;;;;;;;5079064;28;20376;-69
2021/06/18 01:15:47;;;;;;;0.00;0.00;;;;;;;;;;5083422;28;20616;-67
2021/06/18 01:18:13;;;;;;;0.00;0.00;;;;;;;;;;5086772;28;20447;-69
2021/06/18 01:20:57;;;;;;;0.00;0.00;;;;;;;;;;5082450;28;20027;-69
2021/06/18 01:23:36;;;;;;;0.00;0.00;;;;;;;;;;5097455;28;20016;-69
2021/06/18 01:26:03;;;;;;;0.00;0.00;;;;;;;;;;5086559;28;20380;-69
2021/06/18 01:28:47;;;;;;;0.00;0.00;;;;;;;;;;5064204;28;20465;-69
2021/06/18 01:31:13;;;;;;;0.00;0.00;;;;;;;;;;5099275;28;20016;-70
2021/06/18 01:33:39;;;;;;;0.00;0.00;;;;;;;;;;5078803;28;20486;-70
2021/06/18 01:36:04;;;;;;;0.00;0.00;;;;;;;;;;5074263;28;20033;-70
2021/06/18 01:38:30;;;;;;;0.00;0.00;;;;;;;;;;5064363;28;20221;-71
2021/06/18 01:40:56;;;;;;;0.00;0.00;;;;;;;;;;5062779;28;20060;-73
2021/06/18 01:43:21;;;;;;;0.00;0.00;;;;;;;;;;5078530;28;20020;-70
2021/06/18 01:45:47;;;;;;;0.00;0.00;;;;;;;;;;5082097;28;20460;-70
2021/06/18 01:48:12;;;;;;;0.00;0.00;;;;;;;;;;5077885;28;20020;-70
2021/06/18 01:50:37;;;;;;;0.00;0.00;;;;;;;;;;5078082;28;20322;-70
2021/06/18 01:53:04;;;;;;;0.00;0.00;;;;;;;;;;5075230;28;20051;-70
2021/06/18 01:55:30;;;;;;;0.00;0.00;;;;;;;;;;5066743;28;20028;-70
2021/06/18 01:57:58;;;;;;;0.00;0.00;;;;;;;;;;5084832;28;20112;-70
2021/06/18 02:00:24;;;;;;;0.00;0.00;;;;;;;;;;5077741;28;20031;-70
2021/06/18 02:02:49;;;;;;;0.00;0.00;;;;;;;;;;5074775;28;20438;-70
2021/06/18 02:05:15;;;;;;;0.00;0.00;;;;;;;;;;5080581;28;20319;-71
2021/06/18 02:07:40;;;;;;;0.00;0.00;;;;;;;;;;5081018;28;20796;-71
2021/06/18 02:10:06;;;;;;;0.00;0.00;;;;;;;;;;5080539;28;20111;-69
2021/06/18 02:12:32;;;;;;;0.00;0.00;;;;;;;;;;5081512;28;20030;-69
2021/06/18 02:14:57;;;;;;;0.00;0.00;;;;;;;;;;5084351;28;20024;-70
2021/06/18 02:17:22;;;;;;;0.00;0.00;;;;;;;;;;5085869;28;20024;-70
2021/06/18 02:19:49;;;;;;;0.00;0.00;;;;;;;;;;5084114;28;20028;-70
2021/06/18 02:22:14;;;;;;;0.00;0.00;;;;;;;;;;5063097;28;20297;-70
2021/06/18 02:24:40;;;;;;;0.00;0.00;;;;;;;;;;5063734;28;20016;-70
2021/06/18 02:27:23;;;;;;;0.00;0.00;;;;;;;;;;5072290;28;20093;-70
2021/06/18 02:29:49;;;;;;;0.00;0.00;;;;;;;;;;5093590;28;20020;-70
2021/06/18 02:32:14;;;;;;;0.00;0.00;;;;;;;;;;5080739;28;20387;-71
2021/06/18 02:34:40;;;;;;;0.00;0.00;;;;;;;;;;5065100;28;20055;-71
2021/06/18 02:37:05;;;;;;;0.00;0.00;;;;;;;;;;5081898;28;20035;-70
2021/06/18 02:39:37;;;;;;;0.00;0.00;;;;;;;;;;5078069;28;20497;-71
2021/06/18 02:42:04;;;;;;;0.00;0.00;;;;;;;;;;5052218;28;20032;-70
2021/06/18 02:44:29;;;;;;;0.00;0.00;;;;;;;;;;5054972;28;20391;-70
2021/06/18 02:47:02;;;;;;;0.00;0.00;;;;;;;;;;5070431;28;20094;-70
2021/06/18 02:49:45;;;;;;;0.00;0.00;;;;;;;;;;5071086;28;20503;-70
2021/06/18 02:52:14;;;;;;;0.00;0.00;;;;;;;;;;5072169;28;20016;-70
2021/06/18 02:55:03;;;;;;;0.00;0.00;;;;;;;;;;5069750;28;20052;-70
2021/06/18 02:57:32;;;;;;;0.00;0.00;;;;;;;;;;5040041;28;20123;-70
2021/06/18 03:00:05;;;;;;;0.00;0.00;;;;;;;;;;5053278;28;20029;-70
2021/06/18 03:02:33;;;;;;;0.00;0.00;;;;;;;;;;5054142;28;20024;-70
2021/06/18 03:04:58;;;;;;;0.00;0.00;;;;;;;;;;5068471;28;20016;-70
2021/06/18 03:07:30;;;;;;;0.00;0.00;;;;;;;;;;5071625;28;20475;-70
2021/06/18 03:09:57;;;;;;;0.00;0.00;;;;;;;;;;5054833;28;20097;-71
2021/06/18 03:12:29;;;;;;;0.00;0.00;;;;;;;;;;5070478;28;20024;-71
2021/06/18 03:14:56;;;;;;;0.00;0.00;;;;;;;;;;5056273;28;20111;-70
2021/06/18 03:17:22;;;;;;;0.00;0.00;;;;;;;;;;5070770;28;20029;-70
2021/06/18 03:19:52;;;;;;;0.00;0.00;;;;;;;;;;5054969;28;20040;-70
2021/06/18 03:22:18;;;;;;;0.00;0.00;;;;;;;;;;5053409;28;20028;-70
2021/06/18 03:24:44;;;;;;;0.00;0.00;;;;;;;;;;5070952;28;20026;-70
2021/06/18 03:27:09;;;;;;;0.00;0.00;;;;;;;;;;5069969;28;20054;-70
2021/06/18 03:29:35;;;;;;;0.00;0.00;;;;;;;;;;5070717;28;20012;-72
2021/06/18 03:32:00;;;;;;;0.00;0.00;;;;;;;;;;5054278;28;20100;-71
2021/06/18 03:34:28;;;;;;;0.00;0.00;;;;;;;;;;5053834;28;20035;-71
2021/06/18 03:36:54;;;;;;;0.00;0.00;;;;;;;;;;5051643;28;20067;-70
2021/06/18 03:39:19;;;;;;;0.00;0.00;;;;;;;;;;5070774;28;20072;-70
2021/06/18 03:41:45;;;;;;;0.00;0.00;;;;;;;;;;5070762;28;20024;-71
2021/06/18 03:44:11;;;;;;;0.00;0.00;;;;;;;;;;5070604;28;20551;-71
2021/06/18 03:46:36;;;;;;;0.00;0.00;;;;;;;;;;5053861;28;20017;-70
2021/06/18 03:49:05;;;;;;;0.00;0.00;;;;;;;;;;5071586;28;20536;-70
2021/06/18 03:51:30;;;;;;;0.00;0.00;;;;;;;;;;5052382;28;20035;-69
2021/06/18 03:53:58;;;;;;;0.00;0.00;;;;;;;;;;5068379;28;20028;-70
2021/06/18 03:56:29;;;;;;;0.00;0.00;;;;;;;;;;5071151;28;20743;-70
2021/06/18 03:58:55;;;;;;;0.00;0.00;;;;;;;;;;5055087;28;20020;-71
2021/06/18 04:01:20;;;;;;;0.00;0.00;;;;;;;;;;5070493;28;20096;-71
2021/06/18 04:03:45;;;;;;;0.00;0.00;;;;;;;;;;5070209;28;20343;-70
2021/06/18 04:06:11;;;;;;;0.00;0.00;;;;;;;;;;5069663;28;20017;-70
2021/06/18 04:08:37;;;;;;;0.00;0.00;;;;;;;;;;5071384;28;20389;-70
2021/06/18 04:11:06;;;;;;;0.00;0.00;;;;;;;;;;5069987;28;20031;-70
2021/06/18 04:13:31;;;;;;;0.00;0.00;;;;;;;;;;5067955;28;20105;-69
2021/06/18 04:15:56;;;;;;;0.00;0.00;;;;;;;;;;5052046;28;20082;-69
2021/06/18 04:18:24;;;;;;;0.00;0.00;;;;;;;;;;5066510;28;20036;-68
2021/06/18 04:20:50;;;;;;;0.00;0.00;;;;;;;;;;5067802;28;20103;-68
2021/06/18 04:23:16;;;;;;;0.00;0.00;;;;;;;;;;5069128;28;20177;-69
2021/06/18 04:25:41;;;;;;;0.00;0.00;;;;;;;;;;5052130;28;20020;-72
2021/06/18 04:28:06;;;;;;;0.10;0.00;;;;;;;;;;5068917;28;20024;-69
2021/06/18 04:30:31;;;;;;;0.00;0.00;;;;;;;;;;5069657;28;20025;-68
2021/06/18 04:32:57;;;;;;;0.00;0.00;;;;;;;;;;5068421;28;20464;-70
2021/06/18 04:35:22;;;;;;;0.00;0.00;;;;;;;;;;5070071;28;20279;-71
2021/06/18 04:37:47;;;;;;;0.00;0.00;;;;;;;;;;5069712;28;20286;-71
2021/06/18 04:40:13;;;;;;;0.00;0.00;;;;;;;;;;5078706;28;20043;-69
2021/06/18 04:42:38;;;;;;;0.00;0.00;;;;;;;;;;5082489;28;20397;-71
2021/06/18 04:45:04;;;;;;;0.00;0.00;;;;;;;;;;5084151;28;20046;-70
2021/06/18 04:47:30;;;;;;;0.00;0.00;;;;;;;;;;5081980;28;20030;-70
2021/06/18 04:49:55;;;;;;;0.00;0.00;;;;;;;;;;5097212;28;20020;-71
2021/06/18 04:52:20;;;;;;;0.00;0.00;;;;;;;;;;5084706;28;20024;-71
2021/06/18 04:54:45;;;;;;;0.00;0.00;;;;;;;;;;5085478;28;20020;-69
2021/06/18 04:57:10;;;;;;;0.00;0.00;;;;;;;;;;5083889;28;20065;-69
2021/06/18 04:59:38;;;;;;;0.00;0.00;;;;;;;;;;5075491;28;20569;-69
2021/06/18 05:02:04;;;;;;;0.00;0.00;;;;;;;;;;5084839;28;20285;-67
2021/06/18 05:04:29;;;;;;;0.00;0.00;;;;;;;;;;5078607;28;20030;-66
2021/06/18 05:06:54;;;;;;;0.00;0.00;;;;;;;;;;5082259;28;20022;-68
2021/06/18 05:09:20;;;;;;;0.00;0.00;;;;;;;;;;5081489;28;20050;-67
2021/06/18 05:11:45;;;;;;;0.00;0.00;;;;;;;;;;5097439;28;20020;-67
2021/06/18 05:14:10;;;;;;;0.00;0.00;;;;;;;;;;5083477;28;20264;-67
2021/06/18 05:16:38;;;;;;;0.00;0.00;;;;;;;;;;5067208;28;20494;-67
2021/06/18 05:19:03;;;;;;;0.00;0.00;;;;;;;;;;5067777;28;20269;-67
2021/06/18 05:21:29;;;;;;;0.00;0.00;;;;;;;;;;5100149;28;20065;-67
2021/06/18 05:23:54;;;;;;;0.00;0.00;;;;;;;;;;5081955;28;20665;-67
2021/06/18 05:26:19;;;;;;;0.00;0.00;;;;;;;;;;5078669;28;20414;-68
2021/06/18 05:28:45;;;;;;;0.00;0.00;;;;;;;;;;5104039;28;20062;-68
2021/06/18 05:31:10;;;;;;;0.00;0.00;;;;;;;;;;5104205;28;20038;-67
2021/06/18 05:33:35;;;;;;;0.00;0.00;;;;;;;;;;5085390;28;20388;-68
2021/06/18 05:36:00;;;;;;;0.00;0.00;;;;;;;;;;5088602;28;20524;-68
2021/06/18 05:38:26;;;;;;;0.00;0.00;;;;;;;;;;5071165;28;20471;-68
2021/06/18 05:40:53;;;;;;;0.00;0.00;;;;;;;;;;5072886;28;20052;-68
2021/06/18 05:43:18;;;;;;;0.00;0.00;;;;;;;;;;5071862;28;20071;-68
2021/06/18 05:45:43;;;;;;;0.00;0.00;;;;;;;;;;5056795;28;21402;-68
2021/06/18 05:48:08;;;;;;;0.00;0.00;;;;;;;;;;5056080;28;20267;-67
2021/06/18 05:50:33;;;;;;;0.00;0.00;;;;;;;;;;5074195;28;20039;-67
2021/06/18 05:52:59;;;;;;;0.00;0.00;;;;;;;;;;5074302;28;20056;-68
2021/06/18 05:55:24;;;;;;;0.00;0.00;;;;;;;;;;5055672;28;20025;-67
2021/06/18 05:57:50;;;;;;;0.00;0.00;;;;;;;;;;5056124;28;20028;-67
2021/06/18 06:00:15;;;;;;;0.00;0.00;;;;;;;;;;5056204;28;20024;-68
2021/06/18 06:02:40;;;;;;;0.00;0.00;;;;;;;;;;5072380;28;20400;-68
2021/06/18 06:05:06;;;;;;;0.00;0.00;;;;;;;;;;5072585;28;20023;-70
2021/06/18 06:07:31;;;;;;;0.00;0.00;;;;;;;;;;5073087;28;20016;-68
2021/06/18 06:09:56;;;;;;;0.00;0.00;;;;;;;;;;5056295;28;20020;-68
2021/06/18 06:12:21;;;;;;;0.00;0.00;;;;;;;;;;5072750;28;20016;-68
2021/06/18 06:14:46;;;;;;;0.00;0.00;;;;;;;;;;5069807;28;20362;-69
2021/06/18 06:17:12;;;;;;;0.00;0.00;;;;;;;;;;5074323;28;20369;-68
2021/06/18 06:19:37;;;;;;;0.00;0.00;;;;;;;;;;5057500;28;20263;-68
2021/06/18 06:22:02;;;;;;;0.00;0.00;;;;;;;;;;5072595;28;20038;-68
2021/06/18 06:24:28;;;;;;;0.00;0.00;;;;;;;;;;5065537;28;20066;-68
2021/06/18 06:26:53;;;;;;;0.00;0.00;;;;;;;;;;5073695;28;20020;-68
2021/06/18 06:29:18;;;;;;;0.00;0.00;;;;;;;;;;5072016;28;20350;-68
2021/06/18 06:31:44;;;;;;;0.00;0.00;;;;;;;;;;5070952;28;20487;-68
2021/06/18 06:34:10;;;;;;;0.03;0.00;;;;;;;;;;5071690;28;20377;-69
2021/06/18 06:36:35;;;;;;;0.00;0.00;;;;;;;;;;5071425;28;20085;-68
2021/06/18 06:39:02;;;;;;;0.00;0.00;;;;;;;;;;5075415;28;20056;-68
2021/06/18 06:41:27;;;;;;;0.00;0.00;;;;;;;;;;5067994;28;20277;-68
2021/06/18 06:43:52;;;;;;;0.00;0.00;;;;;;;;;;5084713;28;20024;-69
2021/06/18 06:46:18;;;;;;;0.00;0.00;;;;;;;;;;5082727;28;20032;-68
2021/06/18 06:48:43;;;;;;;0.00;0.00;;;;;;;;;;5083167;28;20254;-68
2021/06/18 06:51:09;;;;;;;0.00;0.00;;;;;;;;;;5083468;28;20490;-69
2021/06/18 06:53:34;;;;;;;0.00;0.00;;;;;;;;;;5064980;28;20043;-69
2021/06/18 06:55:59;;;;;;;0.00;0.00;;;;;;;;;;5081727;28;20285;-69
2021/06/18 06:58:24;;;;;;;0.00;0.00;;;;;;;;;;5067912;28;20646;-69
2021/06/18 07:00:49;;;;;;;0.00;0.00;;;;;;;;;;5083726;28;20039;-69
2021/06/18 07:03:15;;;;;;;0.00;0.00;;;;;;;;;;5083316;28;20034;-69
2021/06/18 07:05:40;;;;;;;0.00;0.00;;;;;;;;;;5082253;28;20475;-68
2021/06/18 07:08:18;;;;;;;0.00;0.00;;;;;;;;;;5083552;28;20254;-69
2021/06/18 07:10:44;;;;;;;0.00;0.00;;;;;;;;;;5079652;28;21133;-69
2021/06/18 07:13:09;;;;;;;0.00;0.00;;;;;;;;;;5085278;28;20028;-69
2021/06/18 07:15:34;;;;;;;0.00;0.00;;;;;;;;;;5068211;28;20128;-69
2021/06/18 07:17:59;;;;;;;0.00;0.00;;;;;;;;;;5083005;28;20274;-69
2021/06/18 07:20:24;;;;;;;0.00;0.00;;;;;;;;;;5092436;28;20330;-69
2021/06/18 07:22:50;;;;;;;0.00;0.00;;;;;;;;;;5080691;28;20806;-69
2021/06/18 07:25:15;;;;;;;0.00;0.00;;;;;;;;;;5083930;28;20430;-69
2021/06/18 07:27:40;;;;;;;0.00;0.00;;;;;;;;;;5066950;28;20266;-68
2021/06/18 07:30:05;;;;;;;0.00;0.00;;;;;;;;;;5066280;28;20265;-70
2021/06/18 07:32:31;;;;;;;0.00;0.00;;;;;;;;;;5091568;28;20258;-69
2021/06/18 07:34:56;;;;;;;0.00;0.00;;;;;;;;;;5090823;28;20024;-72
2021/06/18 07:37:21;;;;;;;0.00;0.00;;;;;;;;;;5062945;28;20475;-70
2021/06/18 07:39:46;;;;;;;0.00;0.00;;;;;;;;;;5054166;28;20287;-69
2021/06/18 07:42:12;;;;;;;0.00;0.00;;;;;;;;;;5054565;28;20286;-69
2021/06/18 07:44:38;;;;;;;0.00;0.00;;;;;;;;;;5055460;28;20040;-69
2021/06/18 07:47:05;;;;;;;0.00;0.00;;;;;;;;;;5062413;28;20050;-69
2021/06/18 07:49:30;;;;;;;0.00;0.00;;;;;;;;;;5089155;28;20028;-69
2021/06/18 07:51:55;;;;;;;0.00;0.00;;;;;;;;;;5068268;28;20028;-69
2021/06/18 07:54:20;;;;;;;0.00;0.00;;;;;;;;;;5080081;28;20512;-69
2021/06/18 07:56:47;;;;;;;0.00;0.00;;;;;;;;;;5089851;28;20032;-68
2021/06/18 07:59:12;;;;;;;0.00;0.00;;;;;;;;;;5061766;28;20411;-68
2021/06/18 08:01:37;;;;;;;0.00;0.00;;;;;;;;;;5065275;28;20151;-68
2021/06/18 08:04:02;;;;;;;0.00;0.00;;;;;;;;;;5077807;28;20039;-68
2021/06/18 08:06:28;;;;;;;0.00;0.00;;;;;;;;;;5064258;28;20032;-68
2021/06/18 08:08:53;;;;;;;0.00;0.00;;;;;;;;;;5062374;28;20024;-68
2021/06/18 08:11:18;;;;;;;0.00;0.00;;;;;;;;;;5077137;28;20031;-68
2021/06/18 08:13:43;;;;;;;0.00;0.00;;;;;;;;;;5078547;28;20111;-68
2021/06/18 08:16:08;;;;;;;0.00;0.00;;;;;;;;;;5090089;28;20339;-69
2021/06/18 08:18:35;;;;;;;0.00;0.00;;;;;;;;;;5074862;28;20443;-68
2021/06/18 08:21:00;;;;;;;0.00;0.00;;;;;;;;;;5062554;28;20067;-67
2021/06/18 08:23:25;;;;;;;0.00;0.00;;;;;;;;;;5061010;28;20047;-68
2021/06/18 08:25:51;;;;;;;0.00;0.00;;;;;;;;;;5090189;28;20023;-68
2021/06/18 08:28:16;;;;;;;0.00;0.00;;;;;;;;;;5090470;28;20063;-69
2021/06/18 08:30:41;;;;;;;0.00;0.00;;;;;;;;;;5090090;28;20468;-68
2021/06/18 08:33:06;;;;;;;0.00;0.00;;;;;;;;;;5089742;28;20058;-69
2021/06/18 08:35:32;;;;;;;0.00;0.00;;;;;;;;;;5087586;28;20345;-68
2021/06/18 08:38:00;;;;;;;0.00;0.00;;;;;;;;;;5079606;28;20361;-68
2021/06/18 08:40:26;;;;;;;0.00;0.00;;;;;;;;;;5053773;28;20121;-68
2021/06/18 08:42:51;;;;;;;0.00;0.00;;;;;;;;;;5068462;28;20509;-68
2021/06/18 08:45:16;;;;;;;0.00;0.00;;;;;;;;;;5068562;28;20050;-68
2021/06/18 08:47:41;;;;;;;0.00;0.00;;;;;;;;;;5060388;28;20040;-68
2021/06/18 08:50:07;;;;;;;0.00;0.00;;;;;;;;;;5069090;28;20021;-68
2021/06/18 08:52:32;;;;;;;0.00;0.00;;;;;;;;;;5066285;28;20120;-68
2021/06/18 08:54:57;;;;;;;0.00;0.00;;;;;;;;;;5067663;28;20062;-69
2021/06/18 08:57:22;;;;;;;0.00;0.00;;;;;;;;;;5050325;28;20032;-68
2021/06/18 08:59:48;;;;;;;0.00;0.00;;;;;;;;;;5048093;28;20121;-68
2021/06/18 09:02:13;;;;;;;0.00;0.00;;;;;;;;;;5072775;28;20028;-68
2021/06/18 09:04:57;;;;;;;0.00;0.00;;;;;;;;;;5071098;28;20016;-68
2021/06/18 09:07:22;;;;;;;0.00;0.00;;;;;;;;;;5072990;28;20009;-69
2021/06/18 09:09:48;;;;;;;0.00;0.00;;;;;;;;;;5057478;28;20090;-69
2021/06/18 09:12:13;;;;;;;0.00;0.00;;;;;;;;;;5064309;28;20020;-69
2021/06/18 09:14:40;;;;;;;0.00;0.00;;;;;;;;;;5070193;28;20066;-69
2021/06/18 09:17:18;;;;;;;0.00;0.00;;;;;;;;;;5073347;28;20096;-69
2021/06/18 09:19:48;;;;;;;0.00;0.00;;;;;;;;;;5071779;28;20020;-69
2021/06/18 09:22:14;;;;;;;0.00;0.00;;;;;;;;;;5065872;28;20369;-69
2021/06/18 09:24:41;;;;;;;0.00;0.00;;;;;;;;;;5072002;28;20017;-69
2021/06/18 09:27:06;;;;;;;0.00;0.00;;;;;;;;;;5071524;28;20065;-68
2021/06/18 09:29:31;;;;;;;0.00;0.00;;;;;;;;;;5069178;28;20091;-69
2021/06/18 09:31:58;;;;;;;0.00;0.00;;;;;;;;;;5055510;28;20025;-67
2021/06/18 09:34:30;;;;;;;0.00;0.00;;;;;;;;;;5073649;28;20016;-67
2021/06/18 09:37:12;;;;;;;0.00;0.00;;;;;;;;;;5055212;28;20021;-66
2021/06/18 09:39:52;;;;;;;0.00;0.00;;;;;;;;;;5071767;28;20408;-67
2021/06/18 09:42:19;;;;;;;0.00;0.00;;;;;;;;;;5071771;28;20021;-67
2021/06/18 09:44:57;;;;;;;0.00;0.00;;;;;;;;;;5074781;28;20342;-66
2021/06/18 09:47:22;;;;;;;0.00;0.00;;;;;;;;;;5072121;28;20489;-66
2021/06/18 09:49:47;;;;;;;0.00;0.00;;;;;;;;;;5054398;28;20012;-67
2021/06/18 09:52:15;;;;;;;0.00;0.00;;;;;;;;;;5071117;28;20279;-67
2021/06/18 09:54:45;;;;;;;0.00;0.00;;;;;;;;;;5070822;28;20032;-67
2021/06/18 09:57:11;;;;;;;0.00;0.00;;;;;;;;;;5071435;28;20652;-68
2021/06/18 09:59:50;;;;;;;0.00;0.00;;;;;;;;;;5071448;28;20027;-67
2021/06/18 10:02:15;;;;;;;0.00;0.00;;;;;;;;;;5071369;28;20111;-66
2021/06/18 10:04:41;;;;;;;0.00;0.00;;;;;;;;;;5053541;28;20112;-67
2021/06/18 10:07:07;;;;;;;0.00;0.00;;;;;;;;;;5051916;28;20035;-67
2021/06/18 10:09:32;;;;;;;0.00;0.00;;;;;;;;;;5071426;28;20016;-67
2021/06/18 10:11:57;;;;;;;0.00;0.00;;;;;;;;;;5051095;28;20048;-68
2021/06/18 10:14:22;;;;;;;0.00;0.00;;;;;;;;;;5067937;28;20017;-67
2021/06/18 10:16:48;;;;;;;0.00;0.00;;;;;;;;;;5069198;28;20051;-67
2021/06/18 10:19:13;;;;;;;0.00;0.00;;;;;;;;;;5069849;28;20298;-68
2021/06/18 10:21:51;;;;;;;0.00;0.00;;;;;;;;;;5045830;28;20274;-67
2021/06/18 10:24:16;;;;;;;0.00;0.00;;;;;;;;;;5050258;28;20044;-66
2021/06/18 10:26:41;;;;;;;0.00;0.00;;;;;;;;;;5066931;28;20016;-67
2021/06/18 10:29:07;;;;;;;0.00;0.00;;;;;;;;;;5071162;28;20040;-68
2021/06/18 10:31:35;;;;;;;0.00;0.00;;;;;;;;;;5052673;28;20525;-68
2021/06/18 10:34:11;;;;;;;0.00;0.00;;;;;;;;;;5072264;28;20638;-69
2021/06/18 10:36:37;;;;;;;0.00;0.00;;;;;;;;;;5071700;28;20484;-68
2021/06/18 10:39:08;;;;;;;0.00;0.00;;;;;;;;;;5075705;28;20058;-68
2021/06/18 10:41:34;;;;;;;0.00;0.00;;;;;;;;;;5097617;28;20034;-68
2021/06/18 10:43:59;;;;;;;0.00;0.00;;;;;;;;;;5083016;28;20094;-69
2021/06/18 10:46:30;;;;;;;0.00;0.00;;;;;;;;;;5093288;28;20020;-69
2021/06/18 10:48:58;;;;;;;0.00;0.00;;;;;;;;;;5093228;28;20088;-69
2021/06/18 10:51:30;;;;;;;0.00;0.00;;;;;;;;;;5097582;28;20039;-69
2021/06/18 10:54:36;;;;;;;0.00;0.00;;;;;;;;;;5093111;28;20357;-70
2021/06/18 10:57:01;;;;;;;0.00;0.00;;;;;;;;;;5087084;28;20079;-70
2021/06/18 10:59:30;;;;;;;0.00;0.00;;;;;;;;;;5093327;28;20470;-69
2021/06/18 11:01:55;;;;;;;0.00;0.00;;;;;;;;;;5066596;28;20020;-70
2021/06/18 11:04:44;;;;;;;0.00;0.00;;;;;;;;;;5084608;28;20830;-69
2021/06/18 11:07:19;;;;;;;0.00;0.00;;;;;;;;;;5089592;28;20028;-70
2021/06/18 11:09:45;;;;;;;0.00;0.00;;;;;;;;;;5101100;28;20016;-69
2021/06/18 11:12:22;;;;;;;0.00;0.00;;;;;;;;;;5084282;28;21684;-71
2021/06/18 11:14:48;;;;;;;0.00;0.00;;;;;;;;;;5092466;28;20107;-70
2021/06/18 11:17:32;;;;;;;0.00;0.00;;;;;;;;;;5080285;28;20115;-70
2021/06/18 11:19:57;;;;;;;0.00;0.00;;;;;;;;;;5092524;28;20365;-70
2021/06/18 11:22:32;;;;;;;0.00;0.00;;;;;;;;;;5081541;28;20030;-71
2021/06/18 11:24:57;;;;;;;0.00;0.00;;;;;;;;;;5090634;28;20024;-70
2021/06/18 11:27:23;;;;;;;0.00;0.00;;;;;;;;;;5079817;28;20074;-70
2021/06/18 11:30:06;;;;;;;0.00;0.00;;;;;;;;;;5091594;28;20020;-70
2021/06/18 11:32:41;;;;;;;0.00;0.00;;;;;;;;;;5081883;28;20472;-70
2021/06/18 11:35:39;;;;;;;0.00;0.00;;;;;;;;;;5079535;28;20258;-71
2021/06/18 11:38:11;;;;;;;0.00;0.00;;;;;;;;;;5067374;28;20052;-70
2021/06/18 11:40:39;;;;;;;0.00;0.00;;;;;;;;;;5067970;28;20066;-71
2021/06/18 11:43:04;;;;;;;0.00;0.00;;;;;;;;;;5069101;28;20145;-70
2021/06/18 11:45:40;;;;;;;0.00;0.00;;;;;;;;;;5071090;28;20480;-69
2021/06/18 11:48:18;;;;;;;0.00;0.00;;;;;;;;;;5068599;28;20016;-70
2021/06/18 11:50:44;;;;;;;0.00;0.00;;;;;;;;;;5048687;28;20088;-70
2021/06/18 11:53:09;;;;;;;0.00;0.00;;;;;;;;;;5053066;28;20020;-68
2021/06/18 11:55:34;;;;;;;0.00;0.00;;;;;;;;;;5068986;28;20021;-68
2021/06/18 11:57:59;;;;;;;0.00;0.00;;;;;;;;;;5072312;28;20210;-68
2021/06/18 12:00:35;;;;;;;0.00;0.00;;;;;;;;;;5050468;28;20377;-68
2021/06/18 12:03:00;;;;;;;0.00;0.00;;;;;;;;;;5064188;28;20028;-68
2021/06/18 12:05:32;;;;;;;0.00;0.00;;;;;;;;;;5049376;28;20013;-70
2021/06/18 12:07:57;;;;;;;0.00;0.00;;;;;;;;;;5059924;28;20138;-69
2021/06/18 12:10:24;;;;;;;0.00;0.00;;;;;;;;;;5064705;28;20099;-69
2021/06/18 12:12:49;;;;;;;0.00;0.00;;;;;;;;;;5068866;28;20107;-69
2021/06/18 12:15:18;;;;;;;0.00;0.00;;;;;;;;;;5069264;28;20145;-69
2021/06/18 12:17:50;;;;;;;0.00;0.00;;;;;;;;;;5066287;28;20023;-69
2021/06/18 12:20:26;;;;;;;0.00;0.00;;;;;;;;;;5049061;28;20096;-69
2021/06/18 12:22:51;;;;;;;0.00;0.00;;;;;;;;;;5067470;28;20069;-69
2021/06/18 12:25:16;;;;;;;0.00;0.00;;;;;;;;;;5052096;28;20016;-69
2021/06/18 12:27:41;;;;;;;0.00;0.00;;;;;;;;;;5069049;28;20259;-70
2021/06/18 12:30:07;;;;;;;0.00;0.00;;;;;;;;;;5070710;28;20063;-70
2021/06/18 12:32:33;;;;;;;0.00;0.00;;;;;;;;;;5052610;28;20114;-70
2021/06/18 12:34:59;;;;;;;0.00;0.00;;;;;;;;;;5050707;28;20115;-69
2021/06/18 12:37:25;;;;;;;0.00;0.00;;;;;;;;;;5068747;28;20345;-69
2021/06/18 12:39:51;;;;;;;0.00;0.00;;;;;;;;;;5076792;28;20058;-69
2021/06/18 12:42:21;;;;;;;0.00;0.00;;;;;;;;;;5090745;28;20016;-69
2021/06/18 12:44:46;;;;;;;0.00;0.00;;;;;;;;;;5089229;28;20321;-68
2021/06/18 12:47:11;;;;;;;0.00;0.00;;;;;;;;;;5066077;28;20016;-69
2021/06/18 12:49:37;;;;;;;0.00;0.00;;;;;;;;;;5090338;28;20012;-69
2021/06/18 12:52:12;;;;;;;0.00;0.00;;;;;;;;;;5081398;28;20094;-68
2021/06/18 12:54:38;;;;;;;0.00;0.00;;;;;;;;;;5079068;28;20297;-68
2021/06/18 12:57:03;;;;;;;0.00;0.00;;;;;;;;;;5076230;28;20048;-69
2021/06/18 12:59:38;;;;;;;0.00;0.00;;;;;;;;;;5062436;28;20028;-68
2021/06/18 13:02:03;;;;;;;0.00;0.00;;;;;;;;;;5081448;28;20027;-68
2021/06/18 13:04:32;;;;;;;0.00;0.00;;;;;;;;;;5090387;28;20012;-69
2021/06/18 13:06:58;;;;;;;0.00;0.00;;;;;;;;;;5063567;28;20294;-69
2021/06/18 13:09:32;;;;;;;0.00;0.00;;;;;;;;;;5080078;28;20063;-68
2021/06/18 13:11:58;;;;;;;0.00;0.00;;;;;;;;;;5089961;28;20262;-68
2021/06/18 13:14:23;;;;;;;0.00;0.00;;;;;;;;;;5089683;28;20021;-69
2021/06/18 13:16:49;;;;;;;0.00;0.00;;;;;;;;;;5067227;28;20425;-68
2021/06/18 13:19:14;;;;;;;0.00;0.00;;;;;;;;;;5100021;28;20115;-70
2021/06/18 13:21:41;;;;;;;0.00;0.00;;;;;;;;;;5078665;28;20055;-68
2021/06/18 13:24:10;;;;;;;0.00;0.00;;;;;;;;;;5082398;28;20026;-68
2021/06/18 13:26:36;;;;;;;0.00;0.00;;;;;;;;;;5066434;28;20536;-68
2021/06/18 13:29:08;;;;;;;0.00;0.00;;;;;;;;;;5090604;28;20022;-69
2021/06/18 13:31:34;;;;;;;0.00;0.00;;;;;;;;;;5083023;28;20012;-69
2021/06/18 13:33:59;;;;;;;0.00;0.00;;;;;;;;;;5083656;28;20039;-68
2021/06/18 13:36:25;;;;;;;0.00;0.00;;;;;;;;;;5079314;28;20540;-69
2021/06/18 13:38:51;;;;;;;0.00;0.00;;;;;;;;;;5058474;28;20332;-69
2021/06/18 13:41:17;;;;;;;0.00;0.00;;;;;;;;;;5041287;28;20036;-69
2021/06/18 13:43:42;;;;;;;0.00;0.00;;;;;;;;;;5062092;28;20066;-69
2021/06/18 13:46:07;;;;;;;0.00;0.00;;;;;;;;;;5065649;28;20040;-69
2021/06/18 13:48:33;;;;;;;0.00;0.00;;;;;;;;;;5044955;28;20596;-70
2021/06/18 13:50:58;;;;;;;0.00;0.00;;;;;;;;;;5042470;28;20097;-68
2021/06/18 13:53:26;;;;;;;0.00;0.00;;;;;;;;;;5058477;28;20948;-68
2021/06/18 13:55:55;;;;;;;0.00;0.00;;;;;;;;;;5063357;28;20500;-69
2021/06/18 13:58:21;;;;;;;0.00;0.00;;;;;;;;;;5066927;28;20039;-69
2021/06/18 14:00:46;;;;;;;0.00;0.00;;;;;;;;;;5062672;28;20020;-69
2021/06/18 14:03:12;;;;;;;0.00;0.00;;;;;;;;;;5059379;28;20020;-70
2021/06/18 14:05:37;;;;;;;0.00;0.00;;;;;;;;;;5058326;28;20488;-70
2021/06/18 14:08:22;;;;;;;0.00;0.00;;;;;;;;;;5048596;28;20407;-70
2021/06/18 14:10:48;;;;;;;0.00;0.00;;;;;;;;;;5061850;28;20122;-70
2021/06/18 14:13:13;;;;;;;0.00;0.00;;;;;;;;;;5046419;28;20339;-70
2021/06/18 14:15:46;;;;;;;0.00;0.00;;;;;;;;;;5043638;28;20664;-69
2021/06/18 14:18:11;;;;;;;0.00;0.00;;;;;;;;;;5063148;28;20017;-69
2021/06/18 14:20:37;;;;;;;0.00;0.00;;;;;;;;;;5062221;28;21334;-69
2021/06/18 14:23:02;;;;;;;0.00;0.00;;;;;;;;;;5057861;28;20061;-71
2021/06/18 14:25:30;;;;;;;0.00;0.00;;;;;;;;;;5058875;28;20397;-70
2021/06/18 14:27:55;;;;;;;0.00;0.00;;;;;;;;;;5046099;28;20476;-70
2021/06/18 14:30:21;;;;;;;0.00;0.00;;;;;;;;;;5060986;28;20025;-69
2021/06/18 14:32:46;;;;;;;0.00;0.00;;;;;;;;;;5066623;28;20020;-68
2021/06/18 14:35:11;;;;;;;0.00;0.00;;;;;;;;;;5068084;28;20380;-68
2021/06/18 14:37:42;;;;;;;0.00;0.00;;;;;;;;;;5070146;28;20055;-69
2021/06/18 14:40:09;;;;;;;0.00;0.00;;;;;;;;;;5074071;28;20055;-71
2021/06/18 14:42:35;;;;;;;0.00;0.00;;;;;;;;;;5061919;28;20026;-70
2021/06/18 14:45:00;;;;;;;0.00;0.00;;;;;;;;;;5080004;28;20391;-69